sensor_id;sensor_type;location;lat;lon;timestamp;temperature;humidity
16827;DHT22;8530;49.540;8.576;2023-04-06T00:02:15;3.40;40.10
16827;DHT22;8530;49.540;8.576;2023-04-06T00:04:41;3.50;40.30
16827;DHT22;8530;49.540;8.576;2023-04-06T00:07:08;3.50;40.20
16827;DHT22;8530;49.540;8.576;2023-04-06T00:09:35;3.60;40.30
16827;DHT22;8530;49.540;8.576;2023-04-06T00:12:02;3.70;40.40
16827;DHT22;8530;49.540;8.576;2023-04-06T00:14:28;3.80;40.50
16827;DHT22;8530;49.540;8.576;2023-04-06T00:16:56;3.90;40.50
16827;DHT22;8530;49.540;8.576;2023-04-06T00:19:23;3.90;40.40
16827;DHT22;8530;49.540;8.576;2023-04-06T00:21:50;3.90;40.40
16827;DHT22;8530;49.540;8.576;2023-04-06T00:24:16;3.90;40.50
16827;DHT22;8530;49.540;8.576;2023-04-06T00:26:43;3.90;40.50
16827;DHT22;8530;49.540;8.576;2023-04-06T00:29:10;3.90;40.60
16827;DHT22;8530;49.540;8.576;2023-04-06T00:31:37;3.90;40.70
16827;DHT22;8530;49.540;8.576;2023-04-06T00:34:05;3.80;41.20
16827;DHT22;8530;49.540;8.576;2023-04-06T00:36:32;3.80;40.70
16827;DHT22;8530;49.540;8.576;2023-04-06T00:38:58;3.80;40.70
16827;DHT22;8530;49.540;8.576;2023-04-06T00:41:25;3.80;40.80
16827;DHT22;8530;49.540;8.576;2023-04-06T00:43:53;3.70;40.70
16827;DHT22;8530;49.540;8.576;2023-04-06T00:46:20;3.60;40.80
16827;DHT22;8530;49.540;8.576;2023-04-06T00:48:47;3.60;40.90
16827;DHT22;8530;49.540;8.576;2023-04-06T00:51:15;3.50;40.90
16827;DHT22;8530;49.540;8.576;2023-04-06T00:53:42;3.40;41.00
16827;DHT22;8530;49.540;8.576;2023-04-06T00:56:08;3.40;41.10
16827;DHT22;8530;49.540;8.576;2023-04-06T00:58:36;3.30;41.20
16827;DHT22;8530;49.540;8.576;2023-04-06T01:01:04;3.20;41.30
16827;DHT22;8530;49.540;8.576;2023-04-06T01:03:30;3.20;41.40
16827;DHT22;8530;49.540;8.576;2023-04-06T01:05:57;3.10;41.50
16827;DHT22;8530;49.540;8.576;2023-04-06T01:08:26;3.00;41.60
16827;DHT22;8530;49.540;8.576;2023-04-06T01:10:54;3.00;42.40
16827;DHT22;8530;49.540;8.576;2023-04-06T01:13:21;2.90;41.80
16827;DHT22;8530;49.540;8.576;2023-04-06T01:15:47;2.80;41.90
16827;DHT22;8530;49.540;8.576;2023-04-06T01:18:15;2.80;42.10
16827;DHT22;8530;49.540;8.576;2023-04-06T01:20:42;2.70;42.20
16827;DHT22;8530;49.540;8.576;2023-04-06T01:23:10;2.70;42.30
16827;DHT22;8530;49.540;8.576;2023-04-06T01:25:36;2.60;42.40
16827;DHT22;8530;49.540;8.576;2023-04-06T01:28:03;2.60;42.60
16827;DHT22;8530;49.540;8.576;2023-04-06T01:30:30;2.50;42.60
16827;DHT22;8530;49.540;8.576;2023-04-06T01:32:57;2.50;42.80
16827;DHT22;8530;49.540;8.576;2023-04-06T01:35:23;2.40;42.90
16827;DHT22;8530;49.540;8.576;2023-04-06T01:37:50;2.40;43.10
16827;DHT22;8530;49.540;8.576;2023-04-06T01:40:18;2.30;43.10
16827;DHT22;8530;49.540;8.576;2023-04-06T01:42:46;2.30;43.40
16827;DHT22;8530;49.540;8.576;2023-04-06T01:45:13;2.30;43.50
16827;DHT22;8530;49.540;8.576;2023-04-06T01:47:39;2.20;43.50
16827;DHT22;8530;49.540;8.576;2023-04-06T01:50:07;2.20;43.60
16827;DHT22;8530;49.540;8.576;2023-04-06T01:52:34;2.20;43.80
16827;DHT22;8530;49.540;8.576;2023-04-06T01:55:01;2.20;43.90
16827;DHT22;8530;49.540;8.576;2023-04-06T01:57:29;2.20;43.90
16827;DHT22;8530;49.540;8.576;2023-04-06T01:59:55;2.20;44.00
16827;DHT22;8530;49.540;8.576;2023-04-06T02:02:22;2.20;44.00
16827;DHT22;8530;49.540;8.576;2023-04-06T02:04:49;2.20;44.10
16827;DHT22;8530;49.540;8.576;2023-04-06T02:07:16;2.20;44.20
16827;DHT22;8530;49.540;8.576;2023-04-06T02:09:42;2.20;44.30
16827;DHT22;8530;49.540;8.576;2023-04-06T02:12:09;2.30;44.50
16827;DHT22;8530;49.540;8.576;2023-04-06T02:14:37;2.30;44.60
16827;DHT22;8530;49.540;8.576;2023-04-06T02:17:04;2.30;44.60
16827;DHT22;8530;49.540;8.576;2023-04-06T02:19:30;2.30;44.70
16827;DHT22;8530;49.540;8.576;2023-04-06T02:21:57;2.20;44.70
16827;DHT22;8530;49.540;8.576;2023-04-06T02:24:23;2.20;44.80
16827;DHT22;8530;49.540;8.576;2023-04-06T02:26:50;2.10;44.80
16827;DHT22;8530;49.540;8.576;2023-04-06T02:29:17;2.10;44.90
16827;DHT22;8530;49.540;8.576;2023-04-06T02:31:45;2.00;45.00
16827;DHT22;8530;49.540;8.576;2023-04-06T02:34:11;2.00;45.10
16827;DHT22;8530;49.540;8.576;2023-04-06T02:36:42;2.00;45.20
16827;DHT22;8530;49.540;8.576;2023-04-06T02:39:09;1.90;45.30
16827;DHT22;8530;49.540;8.576;2023-04-06T02:41:36;1.90;45.40
16827;DHT22;8530;49.540;8.576;2023-04-06T02:44:03;1.80;45.50
16827;DHT22;8530;49.540;8.576;2023-04-06T02:46:30;1.80;45.60
16827;DHT22;8530;49.540;8.576;2023-04-06T02:48:58;1.80;45.70
16827;DHT22;8530;49.540;8.576;2023-04-06T02:51:25;1.70;45.80
16827;DHT22;8530;49.540;8.576;2023-04-06T02:53:52;1.70;45.90
16827;DHT22;8530;49.540;8.576;2023-04-06T02:56:19;1.60;45.90
16827;DHT22;8530;49.540;8.576;2023-04-06T02:58:47;1.60;46.00
16827;DHT22;8530;49.540;8.576;2023-04-06T03:01:13;1.50;46.10
16827;DHT22;8530;49.540;8.576;2023-04-06T03:03:40;1.50;46.30
16827;DHT22;8530;49.540;8.576;2023-04-06T03:06:08;1.50;46.40
16827;DHT22;8530;49.540;8.576;2023-04-06T03:08:35;1.40;46.50
16827;DHT22;8530;49.540;8.576;2023-04-06T03:11:02;1.40;46.60
16827;DHT22;8530;49.540;8.576;2023-04-06T03:13:29;1.30;46.70
16827;DHT22;8530;49.540;8.576;2023-04-06T03:15:55;1.30;46.90
16827;DHT22;8530;49.540;8.576;2023-04-06T03:18:24;1.30;47.10
16827;DHT22;8530;49.540;8.576;2023-04-06T03:20:51;1.30;47.20
16827;DHT22;8530;49.540;8.576;2023-04-06T03:23:20;1.30;47.30
16827;DHT22;8530;49.540;8.576;2023-04-06T03:25:47;1.30;47.50
16827;DHT22;8530;49.540;8.576;2023-04-06T03:28:14;1.30;47.60
16827;DHT22;8530;49.540;8.576;2023-04-06T03:30:41;1.20;47.60
16827;DHT22;8530;49.540;8.576;2023-04-06T03:33:08;1.30;47.80
16827;DHT22;8530;49.540;8.576;2023-04-06T03:35:34;1.30;48.00
16827;DHT22;8530;49.540;8.576;2023-04-06T03:38:02;1.30;48.10
16827;DHT22;8530;49.540;8.576;2023-04-06T03:40:30;1.30;48.30
16827;DHT22;8530;49.540;8.576;2023-04-06T03:42:57;1.20;48.30
16827;DHT22;8530;49.540;8.576;2023-04-06T03:45:23;1.30;48.40
16827;DHT22;8530;49.540;8.576;2023-04-06T03:47:50;1.20;48.50
16827;DHT22;8530;49.540;8.576;2023-04-06T03:50:17;1.30;48.70
16827;DHT22;8530;49.540;8.576;2023-04-06T03:52:43;1.30;48.80
16827;DHT22;8530;49.540;8.576;2023-04-06T03:55:10;1.30;49.00
16827;DHT22;8530;49.540;8.576;2023-04-06T03:57:38;1.30;49.20
16827;DHT22;8530;49.540;8.576;2023-04-06T04:00:06;1.30;49.20
16827;DHT22;8530;49.540;8.576;2023-04-06T04:02:33;1.20;49.30
16827;DHT22;8530;49.540;8.576;2023-04-06T04:04:59;1.20;49.40
16827;DHT22;8530;49.540;8.576;2023-04-06T04:07:26;1.20;49.50
16827;DHT22;8530;49.540;8.576;2023-04-06T04:09:53;1.10;49.50
16827;DHT22;8530;49.540;8.576;2023-04-06T04:12:20;1.10;49.60
16827;DHT22;8530;49.540;8.576;2023-04-06T04:14:48;1.10;49.70
16827;DHT22;8530;49.540;8.576;2023-04-06T04:17:15;1.10;49.90
16827;DHT22;8530;49.540;8.576;2023-04-06T04:19:41;1.10;50.00
16827;DHT22;8530;49.540;8.576;2023-04-06T04:22:08;1.00;50.10
16827;DHT22;8530;49.540;8.576;2023-04-06T04:24:35;1.00;50.20
16827;DHT22;8530;49.540;8.576;2023-04-06T04:27:01;1.00;50.30
16827;DHT22;8530;49.540;8.576;2023-04-06T04:29:28;1.00;50.50
16827;DHT22;8530;49.540;8.576;2023-04-06T04:31:56;1.00;50.60
16827;DHT22;8530;49.540;8.576;2023-04-06T04:34:23;1.00;50.80
16827;DHT22;8530;49.540;8.576;2023-04-06T04:36:50;1.00;50.90
16827;DHT22;8530;49.540;8.576;2023-04-06T04:39:17;1.00;51.00
16827;DHT22;8530;49.540;8.576;2023-04-06T04:41:44;1.00;51.20
16827;DHT22;8530;49.540;8.576;2023-04-06T04:44:10;1.10;51.40
16827;DHT22;8530;49.540;8.576;2023-04-06T04:46:37;1.10;51.50
16827;DHT22;8530;49.540;8.576;2023-04-06T04:49:05;1.10;51.70
16827;DHT22;8530;49.540;8.576;2023-04-06T04:51:32;1.20;51.80
16827;DHT22;8530;49.540;8.576;2023-04-06T04:53:59;1.20;51.90
16827;DHT22;8530;49.540;8.576;2023-04-06T04:56:26;1.30;52.10
16827;DHT22;8530;49.540;8.576;2023-04-06T04:58:52;1.30;52.20
16827;DHT22;8530;49.540;8.576;2023-04-06T05:01:19;1.30;52.20
16827;DHT22;8530;49.540;8.576;2023-04-06T05:03:46;1.40;52.40
16827;DHT22;8530;49.540;8.576;2023-04-06T05:06:14;1.40;52.50
16827;DHT22;8530;49.540;8.576;2023-04-06T05:08:41;1.50;52.60
16827;DHT22;8530;49.540;8.576;2023-04-06T05:11:08;1.50;52.60
16827;DHT22;8530;49.540;8.576;2023-04-06T05:13:35;1.50;52.70
16827;DHT22;8530;49.540;8.576;2023-04-06T05:16:02;1.60;52.80
16827;DHT22;8530;49.540;8.576;2023-04-06T05:18:28;1.60;52.80
16827;DHT22;8530;49.540;8.576;2023-04-06T05:20:55;1.70;53.00
16827;DHT22;8530;49.540;8.576;2023-04-06T05:23:23;1.70;53.10
16827;DHT22;8530;49.540;8.576;2023-04-06T05:25:50;1.80;53.20
16827;DHT22;8530;49.540;8.576;2023-04-06T05:28:18;1.90;53.40
16827;DHT22;8530;49.540;8.576;2023-04-06T05:30:44;1.90;53.50
16827;DHT22;8530;49.540;8.576;2023-04-06T05:33:12;2.00;53.60
16827;DHT22;8530;49.540;8.576;2023-04-06T05:35:41;2.10;53.70
16827;DHT22;8530;49.540;8.576;2023-04-06T05:38:08;2.20;53.80
16827;DHT22;8530;49.540;8.576;2023-04-06T05:40:37;2.30;53.90
16827;DHT22;8530;49.540;8.576;2023-04-06T05:43:06;2.40;54.00
16827;DHT22;8530;49.540;8.576;2023-04-06T05:45:33;2.50;54.10
16827;DHT22;8530;49.540;8.576;2023-04-06T05:48:00;2.60;54.10
16827;DHT22;8530;49.540;8.576;2023-04-06T05:50:27;2.70;54.20
16827;DHT22;8530;49.540;8.576;2023-04-06T05:52:54;2.80;54.30
16827;DHT22;8530;49.540;8.576;2023-04-06T05:55:21;2.90;54.30
16827;DHT22;8530;49.540;8.576;2023-04-06T05:57:50;3.10;54.40
16827;DHT22;8530;49.540;8.576;2023-04-06T06:00:17;3.20;54.40
16827;DHT22;8530;49.540;8.576;2023-04-06T06:02:45;3.40;54.50
16827;DHT22;8530;49.540;8.576;2023-04-06T06:05:11;3.60;54.60
16827;DHT22;8530;49.540;8.576;2023-04-06T06:07:38;3.70;54.60
16827;DHT22;8530;49.540;8.576;2023-04-06T06:10:05;3.90;54.60
16827;DHT22;8530;49.540;8.576;2023-04-06T06:12:32;4.20;54.90
16827;DHT22;8530;49.540;8.576;2023-04-06T06:15:00;4.50;56.60
16827;DHT22;8530;49.540;8.576;2023-04-06T06:17:27;5.80;59.60
16827;DHT22;8530;49.540;8.576;2023-04-06T06:19:54;7.80;62.80
16827;DHT22;8530;49.540;8.576;2023-04-06T06:22:20;10.10;62.90
16827;DHT22;8530;49.540;8.576;2023-04-06T06:24:47;12.20;62.40
16827;DHT22;8530;49.540;8.576;2023-04-06T06:27:15;14.10;60.50
16827;DHT22;8530;49.540;8.576;2023-04-06T06:29:41;15.80;57.60
16827;DHT22;8530;49.540;8.576;2023-04-06T06:32:09;17.00;54.20
16827;DHT22;8530;49.540;8.576;2023-04-06T06:34:36;18.00;50.80
16827;DHT22;8530;49.540;8.576;2023-04-06T06:37:03;18.90;48.40
16827;DHT22;8530;49.540;8.576;2023-04-06T06:39:30;19.50;45.90
16827;DHT22;8530;49.540;8.576;2023-04-06T06:41:56;20.30;44.40
16827;DHT22;8530;49.540;8.576;2023-04-06T06:44:26;21.30;43.10
16827;DHT22;8530;49.540;8.576;2023-04-06T06:46:52;22.10;41.20
16827;DHT22;8530;49.540;8.576;2023-04-06T06:49:21;22.90;39.80
16827;DHT22;8530;49.540;8.576;2023-04-06T06:51:48;23.80;38.10
16827;DHT22;8530;49.540;8.576;2023-04-06T06:54:15;24.50;36.80
16827;DHT22;8530;49.540;8.576;2023-04-06T06:56:41;25.10;35.50
16827;DHT22;8530;49.540;8.576;2023-04-06T06:59:08;25.90;34.00
16827;DHT22;8530;49.540;8.576;2023-04-06T07:01:37;26.60;32.30
16827;DHT22;8530;49.540;8.576;2023-04-06T07:04:04;27.20;30.30
16827;DHT22;8530;49.540;8.576;2023-04-06T07:06:32;27.80;29.40
16827;DHT22;8530;49.540;8.576;2023-04-06T07:08:59;28.30;28.10
16827;DHT22;8530;49.540;8.576;2023-04-06T07:11:26;28.90;27.20
16827;DHT22;8530;49.540;8.576;2023-04-06T07:13:53;29.20;25.90
16827;DHT22;8530;49.540;8.576;2023-04-06T07:16:20;29.60;25.20
16827;DHT22;8530;49.540;8.576;2023-04-06T07:18:47;30.10;24.40
16827;DHT22;8530;49.540;8.576;2023-04-06T07:21:14;30.60;23.60
16827;DHT22;8530;49.540;8.576;2023-04-06T07:23:43;30.90;22.80
16827;DHT22;8530;49.540;8.576;2023-04-06T07:26:09;31.20;21.90
16827;DHT22;8530;49.540;8.576;2023-04-06T07:28:36;31.40;21.20
16827;DHT22;8530;49.540;8.576;2023-04-06T07:31:03;31.20;20.30
16827;DHT22;8530;49.540;8.576;2023-04-06T07:33:30;31.10;19.80
16827;DHT22;8530;49.540;8.576;2023-04-06T07:35:56;30.70;18.60
16827;DHT22;8530;49.540;8.576;2023-04-06T07:38:23;30.10;18.30
16827;DHT22;8530;49.540;8.576;2023-04-06T07:40:52;29.60;17.80
16827;DHT22;8530;49.540;8.576;2023-04-06T07:43:18;29.60;17.80
16827;DHT22;8530;49.540;8.576;2023-04-06T07:45:45;29.90;17.90
16827;DHT22;8530;49.540;8.576;2023-04-06T07:48:12;30.20;17.80
16827;DHT22;8530;49.540;8.576;2023-04-06T07:50:38;30.60;17.50
16827;DHT22;8530;49.540;8.576;2023-04-06T07:53:05;30.80;17.20
16827;DHT22;8530;49.540;8.576;2023-04-06T07:55:32;31.30;17.00
16827;DHT22;8530;49.540;8.576;2023-04-06T07:58:00;31.80;16.70
16827;DHT22;8530;49.540;8.576;2023-04-06T08:00:27;32.00;16.10
16827;DHT22;8530;49.540;8.576;2023-04-06T08:02:53;32.10;15.80
16827;DHT22;8530;49.540;8.576;2023-04-06T08:05:20;32.30;15.60
16827;DHT22;8530;49.540;8.576;2023-04-06T08:07:47;32.70;15.40
16827;DHT22;8530;49.540;8.576;2023-04-06T08:10:13;32.80;15.00
16827;DHT22;8530;49.540;8.576;2023-04-06T08:12:40;32.70;14.70
16827;DHT22;8530;49.540;8.576;2023-04-06T08:15:09;32.60;14.50
16827;DHT22;8530;49.540;8.576;2023-04-06T08:17:36;32.30;13.90
16827;DHT22;8530;49.540;8.576;2023-04-06T08:20:04;31.80;13.70
16827;DHT22;8530;49.540;8.576;2023-04-06T08:22:31;31.30;13.40
16827;DHT22;8530;49.540;8.576;2023-04-06T08:24:58;31.30;13.40
16827;DHT22;8530;49.540;8.576;2023-04-06T08:27:25;31.40;13.20
16827;DHT22;8530;49.540;8.576;2023-04-06T08:29:52;31.60;13.00
16827;DHT22;8530;49.540;8.576;2023-04-06T08:32:21;31.50;12.60
16827;DHT22;8530;49.540;8.576;2023-04-06T08:34:48;31.30;12.20
16827;DHT22;8530;49.540;8.576;2023-04-06T08:37:15;30.70;11.70
16827;DHT22;8530;49.540;8.576;2023-04-06T08:39:42;29.00;10.90
16827;DHT22;8530;49.540;8.576;2023-04-06T08:42:15;27.30;10.60
16827;DHT22;8530;49.540;8.576;2023-04-06T08:44:49;25.60;10.60
16827;DHT22;8530;49.540;8.576;2023-04-06T08:47:24;23.70;10.70
16827;DHT22;8530;49.540;8.576;2023-04-06T08:49:51;22.10;10.50
16827;DHT22;8530;49.540;8.576;2023-04-06T08:52:19;20.70;10.90
16827;DHT22;8530;49.540;8.576;2023-04-06T08:54:46;19.50;11.00
16827;DHT22;8530;49.540;8.576;2023-04-06T08:57:13;18.60;11.50
16827;DHT22;8530;49.540;8.576;2023-04-06T08:59:41;17.80;12.60
16827;DHT22;8530;49.540;8.576;2023-04-06T09:02:12;17.20;12.30
16827;DHT22;8530;49.540;8.576;2023-04-06T09:04:45;16.90;12.80
16827;DHT22;8530;49.540;8.576;2023-04-06T09:07:12;16.50;13.70
16827;DHT22;8530;49.540;8.576;2023-04-06T09:09:38;16.20;13.60
16827;DHT22;8530;49.540;8.576;2023-04-06T09:12:08;15.90;14.30
16827;DHT22;8530;49.540;8.576;2023-04-06T09:14:38;15.50;14.80
16827;DHT22;8530;49.540;8.576;2023-04-06T09:17:05;15.30;15.00
16827;DHT22;8530;49.540;8.576;2023-04-06T09:19:32;15.20;15.30
16827;DHT22;8530;49.540;8.576;2023-04-06T09:22:04;15.20;15.60
16827;DHT22;8530;49.540;8.576;2023-04-06T09:24:42;15.10;16.00
16827;DHT22;8530;49.540;8.576;2023-04-06T09:27:09;15.20;16.40
16827;DHT22;8530;49.540;8.576;2023-04-06T09:29:36;15.10;17.10
16827;DHT22;8530;49.540;8.576;2023-04-06T09:32:03;14.90;16.90
16827;DHT22;8530;49.540;8.576;2023-04-06T09:34:31;14.90;17.20
16827;DHT22;8530;49.540;8.576;2023-04-06T09:36:58;14.90;17.70
16827;DHT22;8530;49.540;8.576;2023-04-06T09:39:26;14.80;17.80
16827;DHT22;8530;49.540;8.576;2023-04-06T09:41:54;14.80;18.20
16827;DHT22;8530;49.540;8.576;2023-04-06T09:44:21;14.80;18.70
16827;DHT22;8530;49.540;8.576;2023-04-06T09:46:49;14.70;18.80
16827;DHT22;8530;49.540;8.576;2023-04-06T09:49:16;14.50;19.60
16827;DHT22;8530;49.540;8.576;2023-04-06T09:51:45;14.50;19.60
16827;DHT22;8530;49.540;8.576;2023-04-06T09:54:18;14.50;19.70
16827;DHT22;8530;49.540;8.576;2023-04-06T09:56:47;14.60;20.00
16827;DHT22;8530;49.540;8.576;2023-04-06T09:59:21;14.50;20.50
16827;DHT22;8530;49.540;8.576;2023-04-06T10:01:51;14.40;20.70
16827;DHT22;8530;49.540;8.576;2023-04-06T10:04:29;14.40;20.70
16827;DHT22;8530;49.540;8.576;2023-04-06T10:06:59;14.40;21.50
16827;DHT22;8530;49.540;8.576;2023-04-06T10:09:29;14.30;21.70
16827;DHT22;8530;49.540;8.576;2023-04-06T10:12:03;14.30;21.60
16827;DHT22;8530;49.540;8.576;2023-04-06T10:14:31;14.50;21.90
16827;DHT22;8530;49.540;8.576;2023-04-06T10:16:58;14.60;22.30
16827;DHT22;8530;49.540;8.576;2023-04-06T10:19:28;14.80;22.00
16827;DHT22;8530;49.540;8.576;2023-04-06T10:21:58;15.00;22.20
16827;DHT22;8530;49.540;8.576;2023-04-06T10:24:26;15.30;22.30
16827;DHT22;8530;49.540;8.576;2023-04-06T10:27:03;15.40;22.20
16827;DHT22;8530;49.540;8.576;2023-04-06T10:29:44;15.50;22.30
16827;DHT22;8530;49.540;8.576;2023-04-06T10:32:12;15.50;22.10
16827;DHT22;8530;49.540;8.576;2023-04-06T10:34:39;15.60;22.10
16827;DHT22;8530;49.540;8.576;2023-04-06T10:37:13;15.60;22.10
16827;DHT22;8530;49.540;8.576;2023-04-06T10:39:47;15.50;22.00
16827;DHT22;8530;49.540;8.576;2023-04-06T10:42:15;15.70;22.20
16827;DHT22;8530;49.540;8.576;2023-04-06T10:44:42;15.90;22.20
16827;DHT22;8530;49.540;8.576;2023-04-06T10:47:16;16.20;22.10
16827;DHT22;8530;49.540;8.576;2023-04-06T10:49:43;16.40;22.00
16827;DHT22;8530;49.540;8.576;2023-04-06T10:52:10;16.40;21.80
16827;DHT22;8530;49.540;8.576;2023-04-06T10:54:41;16.40;21.60
16827;DHT22;8530;49.540;8.576;2023-04-06T10:57:09;16.40;21.40
16827;DHT22;8530;49.540;8.576;2023-04-06T10:59:41;16.30;21.30
16827;DHT22;8530;49.540;8.576;2023-04-06T11:02:08;16.30;21.20
16827;DHT22;8530;49.540;8.576;2023-04-06T11:04:34;16.40;21.20
16827;DHT22;8530;49.540;8.576;2023-04-06T11:07:01;16.60;21.20
16827;DHT22;8530;49.540;8.576;2023-04-06T11:09:29;16.70;21.10
16827;DHT22;8530;49.540;8.576;2023-04-06T11:11:56;16.90;21.10
16827;DHT22;8530;49.540;8.576;2023-04-06T11:14:23;17.00;20.90
16827;DHT22;8530;49.540;8.576;2023-04-06T11:16:53;17.00;20.70
16827;DHT22;8530;49.540;8.576;2023-04-06T11:19:20;17.00;20.70
16827;DHT22;8530;49.540;8.576;2023-04-06T11:21:48;17.20;20.80
16827;DHT22;8530;49.540;8.576;2023-04-06T11:24:16;17.40;20.70
16827;DHT22;8530;49.540;8.576;2023-04-06T11:26:46;17.50;20.50
16827;DHT22;8530;49.540;8.576;2023-04-06T11:29:16;17.60;20.50
16827;DHT22;8530;49.540;8.576;2023-04-06T11:31:46;17.70;20.40
16827;DHT22;8530;49.540;8.576;2023-04-06T11:34:17;17.90;20.40
16827;DHT22;8530;49.540;8.576;2023-04-06T11:36:46;18.10;20.30
16827;DHT22;8530;49.540;8.576;2023-04-06T11:39:17;18.20;20.10
16827;DHT22;8530;49.540;8.576;2023-04-06T11:41:47;18.20;20.00
16827;DHT22;8530;49.540;8.576;2023-04-06T11:44:15;18.20;19.90
16827;DHT22;8530;49.540;8.576;2023-04-06T11:46:51;18.40;19.80
16827;DHT22;8530;49.540;8.576;2023-04-06T11:49:19;18.70;19.60
16827;DHT22;8530;49.540;8.576;2023-04-06T11:51:46;18.80;19.10
16827;DHT22;8530;49.540;8.576;2023-04-06T11:54:13;18.70;18.90
16827;DHT22;8530;49.540;8.576;2023-04-06T11:56:39;18.70;18.80
16827;DHT22;8530;49.540;8.576;2023-04-06T11:59:06;18.80;19.00
16827;DHT22;8530;49.540;8.576;2023-04-06T12:01:33;18.90;18.80
16827;DHT22;8530;49.540;8.576;2023-04-06T12:04:00;18.90;18.80
16827;DHT22;8530;49.540;8.576;2023-04-06T12:06:29;19.00;18.80
16827;DHT22;8530;49.540;8.576;2023-04-06T12:08:57;19.10;18.60
16827;DHT22;8530;49.540;8.576;2023-04-06T12:11:25;19.20;18.60
16827;DHT22;8530;49.540;8.576;2023-04-06T12:13:52;19.20;18.50
16827;DHT22;8530;49.540;8.576;2023-04-06T12:16:19;19.20;18.40
16827;DHT22;8530;49.540;8.576;2023-04-06T12:18:46;19.10;18.30
16827;DHT22;8530;49.540;8.576;2023-04-06T12:21:13;18.90;18.00
16827;DHT22;8530;49.540;8.576;2023-04-06T12:23:41;18.80;18.00
16827;DHT22;8530;49.540;8.576;2023-04-06T12:26:07;18.80;18.10
16827;DHT22;8530;49.540;8.576;2023-04-06T12:28:34;18.90;18.20
16827;DHT22;8530;49.540;8.576;2023-04-06T12:31:01;19.10;18.20
16827;DHT22;8530;49.540;8.576;2023-04-06T12:33:28;19.10;18.10
16827;DHT22;8530;49.540;8.576;2023-04-06T12:35:55;19.30;18.20
16827;DHT22;8530;49.540;8.576;2023-04-06T12:38:22;19.30;18.00
16827;DHT22;8530;49.540;8.576;2023-04-06T12:40:50;19.20;17.90
16827;DHT22;8530;49.540;8.576;2023-04-06T12:43:16;19.20;17.90
16827;DHT22;8530;49.540;8.576;2023-04-06T12:45:43;19.10;17.90
16827;DHT22;8530;49.540;8.576;2023-04-06T12:48:10;19.10;17.80
16827;DHT22;8530;49.540;8.576;2023-04-06T12:50:37;19.10;17.90
16827;DHT22;8530;49.540;8.576;2023-04-06T12:53:03;19.30;18.10
16827;DHT22;8530;49.540;8.576;2023-04-06T12:55:30;19.50;18.00
16827;DHT22;8530;49.540;8.576;2023-04-06T12:58:00;19.70;18.00
16827;DHT22;8530;49.540;8.576;2023-04-06T13:00:27;19.90;17.90
16827;DHT22;8530;49.540;8.576;2023-04-06T13:02:54;20.00;17.80
16827;DHT22;8530;49.540;8.576;2023-04-06T13:05:21;20.00;17.80
16827;DHT22;8530;49.540;8.576;2023-04-06T13:07:48;20.00;17.70
16827;DHT22;8530;49.540;8.576;2023-04-06T13:10:15;20.10;17.70
16827;DHT22;8530;49.540;8.576;2023-04-06T13:12:41;20.20;17.70
16827;DHT22;8530;49.540;8.576;2023-04-06T13:15:10;20.30;17.60
16827;DHT22;8530;49.540;8.576;2023-04-06T13:17:37;20.40;17.60
16827;DHT22;8530;49.540;8.576;2023-04-06T13:20:04;20.50;17.50
16827;DHT22;8530;49.540;8.576;2023-04-06T13:22:32;20.40;17.10
16827;DHT22;8530;49.540;8.576;2023-04-06T13:24:58;20.00;17.00
16827;DHT22;8530;49.540;8.576;2023-04-06T13:27:25;19.90;17.20
16827;DHT22;8530;49.540;8.576;2023-04-06T13:29:52;20.00;17.30
16827;DHT22;8530;49.540;8.576;2023-04-06T13:32:21;20.10;17.40
16827;DHT22;8530;49.540;8.576;2023-04-06T13:34:47;20.20;17.50
16827;DHT22;8530;49.540;8.576;2023-04-06T13:37:15;20.20;17.30
16827;DHT22;8530;49.540;8.576;2023-04-06T13:39:42;20.20;17.30
16827;DHT22;8530;49.540;8.576;2023-04-06T13:42:09;20.20;17.20
16827;DHT22;8530;49.540;8.576;2023-04-06T13:44:36;20.10;17.10
16827;DHT22;8530;49.540;8.576;2023-04-06T13:47:03;20.00;17.10
16827;DHT22;8530;49.540;8.576;2023-04-06T13:49:31;19.90;16.90
16827;DHT22;8530;49.540;8.576;2023-04-06T13:51:58;19.90;16.90
16827;DHT22;8530;49.540;8.576;2023-04-06T13:54:26;19.90;16.90
16827;DHT22;8530;49.540;8.576;2023-04-06T13:56:53;19.60;16.60
16827;DHT22;8530;49.540;8.576;2023-04-06T13:59:20;19.50;16.80
16827;DHT22;8530;49.540;8.576;2023-04-06T14:01:47;19.50;16.90
16827;DHT22;8530;49.540;8.576;2023-04-06T14:04:14;19.60;17.00
16827;DHT22;8530;49.540;8.576;2023-04-06T14:06:44;19.60;16.90
16827;DHT22;8530;49.540;8.576;2023-04-06T14:09:11;19.60;16.90
16827;DHT22;8530;49.540;8.576;2023-04-06T14:11:38;19.70;16.90
16827;DHT22;8530;49.540;8.576;2023-04-06T14:14:05;19.50;16.50
16827;DHT22;8530;49.540;8.576;2023-04-06T14:16:32;19.40;16.50
16827;DHT22;8530;49.540;8.576;2023-04-06T14:18:59;19.30;16.60
16827;DHT22;8530;49.540;8.576;2023-04-06T14:21:25;19.20;16.50
16827;DHT22;8530;49.540;8.576;2023-04-06T14:23:54;19.20;16.50
16827;DHT22;8530;49.540;8.576;2023-04-06T14:26:22;19.20;16.50
16827;DHT22;8530;49.540;8.576;2023-04-06T14:28:48;19.20;16.50
16827;DHT22;8530;49.540;8.576;2023-04-06T14:33:44;19.20;16.50
16827;DHT22;8530;49.540;8.576;2023-04-06T14:36:11;19.20;16.90
16827;DHT22;8530;49.540;8.576;2023-04-06T14:38:38;19.20;16.40
16827;DHT22;8530;49.540;8.576;2023-04-06T14:41:15;19.20;16.40
16827;DHT22;8530;49.540;8.576;2023-04-06T14:43:41;19.20;16.40
16827;DHT22;8530;49.540;8.576;2023-04-06T14:46:08;19.00;16.30
16827;DHT22;8530;49.540;8.576;2023-04-06T14:48:35;18.80;16.20
16827;DHT22;8530;49.540;8.576;2023-04-06T14:51:02;18.60;16.10
16827;DHT22;8530;49.540;8.576;2023-04-06T14:53:29;18.50;16.00
16827;DHT22;8530;49.540;8.576;2023-04-06T14:55:56;18.40;16.10
16827;DHT22;8530;49.540;8.576;2023-04-06T14:58:25;18.40;16.10
16827;DHT22;8530;49.540;8.576;2023-04-06T15:00:55;18.40;16.20
16827;DHT22;8530;49.540;8.576;2023-04-06T15:03:22;18.40;16.20
16827;DHT22;8530;49.540;8.576;2023-04-06T15:05:50;18.30;16.10
16827;DHT22;8530;49.540;8.576;2023-04-06T15:08:17;18.10;16.10
16827;DHT22;8530;49.540;8.576;2023-04-06T15:10:46;17.90;16.10
16827;DHT22;8530;49.540;8.576;2023-04-06T15:13:12;17.80;16.20
16827;DHT22;8530;49.540;8.576;2023-04-06T15:15:42;17.70;16.30
16827;DHT22;8530;49.540;8.576;2023-04-06T15:18:12;17.70;16.40
16827;DHT22;8530;49.540;8.576;2023-04-06T15:20:39;17.60;16.40
16827;DHT22;8530;49.540;8.576;2023-04-06T15:23:06;17.50;16.40
16827;DHT22;8530;49.540;8.576;2023-04-06T15:25:32;17.40;16.40
16827;DHT22;8530;49.540;8.576;2023-04-06T15:27:59;17.30;16.40
16827;DHT22;8530;49.540;8.576;2023-04-06T15:30:26;17.20;16.50
16827;DHT22;8530;49.540;8.576;2023-04-06T15:32:57;17.00;16.60
16827;DHT22;8530;49.540;8.576;2023-04-06T15:35:26;16.90;16.70
16827;DHT22;8530;49.540;8.576;2023-04-06T15:37:54;16.80;16.70
16827;DHT22;8530;49.540;8.576;2023-04-06T15:40:21;16.70;16.80
16827;DHT22;8530;49.540;8.576;2023-04-06T15:42:48;16.60;16.90
16827;DHT22;8530;49.540;8.576;2023-04-06T15:45:15;16.60;17.10
16827;DHT22;8530;49.540;8.576;2023-04-06T15:47:43;16.50;17.20
16827;DHT22;8530;49.540;8.576;2023-04-06T15:50:12;16.40;17.20
16827;DHT22;8530;49.540;8.576;2023-04-06T15:52:39;16.30;17.20
16827;DHT22;8530;49.540;8.576;2023-04-06T15:55:07;16.20;17.30
16827;DHT22;8530;49.540;8.576;2023-04-06T15:57:34;16.10;17.40